Time;durP1;ratioP1;P1;durP2;ratioP2;P2;SDS_P1;SDS_P2;PMS_P1;PMS_P2;Temp;Humidity;BMP_temperature;BMP_pressure;BME280_temperature;BME280_humidity;BME280_pressure;Samples;Min_cycle;Max_cycle;Signal;HPM_P1;HPM_P2
2022/01/13 00:00:58;;;;;;;16.75;15.00;;;;;;;0.09;77.19;100938.91;4125143;28;20229;-56
2022/01/13 00:03:00;;;;;;;16.30;14.63;;;;;;;0.09;77.51;100946.97;4107576;28;20235;-56
2022/01/13 00:05:03;;;;;;;16.33;14.93;;;;;;;0.02;77.78;100945.78;4124428;28;20601;-56
2022/01/13 00:07:05;;;;;;;17.63;15.83;;;;;;;0.02;77.62;100950.31;4126077;28;20249;-56
2022/01/13 00:09:07;;;;;;;17.50;15.75;;;;;;;0.00;77.77;100950.44;4125439;28;20252;-55
2022/01/13 00:11:09;;;;;;;17.30;15.47;;;;;;;0.01;77.88;100952.13;4109598;28;20226;-56
2022/01/13 00:13:20;;;;;;;17.40;15.77;;;;;;;0.03;77.48;100943.94;4109464;28;20230;-55
2022/01/13 00:15:38;;;;;;;16.67;15.00;;;;;;;0.04;77.49;100953.72;4109849;28;20743;-55
2022/01/13 00:21:57;;;;;;;18.27;16.40;;;;;;;0.10;77.40;100954.09;4108497;28;20238;-55
2022/01/13 00:24:01;;;;;;;15.83;14.33;;;;;;;0.12;77.54;100959.34;4106752;28;20356;-56
2022/01/13 00:26:08;;;;;;;16.40;14.63;;;;;;;0.18;77.41;100967.78;4124023;28;20210;-56
2022/01/13 00:28:18;;;;;;;20.53;14.93;;;;;;;0.17;77.62;100960.69;4091779;28;20233;-56
2022/01/13 00:30:20;;;;;;;16.20;14.80;;;;;;;0.32;77.03;100956.75;4108156;28;20236;-56
2022/01/13 00:32:25;;;;;;;16.38;14.70;;;;;;;0.30;77.57;100956.03;4123021;28;20203;-56
2022/01/13 00:34:27;;;;;;;15.77;14.18;;;;;;;0.26;77.15;100954.56;4125228;28;20329;-55
2022/01/13 00:36:34;;;;;;;17.00;14.27;;;;;;;0.26;77.36;100946.47;4123115;28;20668;-56
2022/01/13 00:38:36;;;;;;;17.52;14.52;;;;;;;0.28;77.42;100963.34;4107072;28;20664;-57
2022/01/13 00:40:38;;;;;;;15.63;14.43;;;;;;;0.26;77.22;100959.94;4104633;28;20254;-56
2022/01/13 00:42:40;;;;;;;15.20;13.93;;;;;;;0.27;77.03;100960.81;4123099;28;20249;-55
2022/01/13 00:44:43;;;;;;;15.88;14.43;;;;;;;0.29;77.43;100959.66;4093199;28;20207;-55
2022/01/13 00:46:48;;;;;;;14.43;13.23;;;;;;;0.30;77.26;100966.78;4109630;28;20238;-56
2022/01/13 00:48:54;;;;;;;14.80;13.60;;;;;;;0.33;77.22;100963.84;4107296;28;20642;-55
2022/01/13 00:50:56;;;;;;;14.45;12.95;;;;;;;0.34;77.30;100956.63;4110976;28;20582;-56
2022/01/13 00:52:57;;;;;;;15.95;14.55;;;;;;;0.37;77.43;100962.63;4123231;28;20245;-55
2022/01/13 00:55:04;;;;;;;14.40;13.10;;;;;;;0.42;77.60;100965.75;4108361;28;20234;-55
2022/01/13 00:57:05;;;;;;;13.87;12.27;;;;;;;0.48;77.94;100957.19;4124715;28;20241;-56
2022/01/13 00:59:10;;;;;;;16.37;14.77;;;;;;;0.37;78.61;100962.63;4109947;28;20596;-55
2022/01/13 01:01:12;;;;;;;21.73;15.87;;;;;;;0.33;78.80;100961.16;4110230;28;20254;-55
2022/01/13 01:03:14;;;;;;;17.23;15.63;;;;;;;0.30;78.88;100961.41;4097631;28;20267;-56
2022/01/13 01:05:16;;;;;;;15.73;14.23;;;;;;;0.27;79.07;100966.19;4126596;28;20206;-56
2022/01/13 01:07:18;;;;;;;16.73;15.20;;;;;;;0.30;78.93;100972.19;4108003;28;20207;-55
2022/01/13 01:09:30;;;;;;;16.95;15.45;;;;;;;0.37;78.79;100973.38;4108411;28;20206;-55
2022/01/13 01:11:32;;;;;;;16.30;14.77;;;;;;;0.49;78.48;100966.97;4111898;28;20353;-55
2022/01/13 01:13:36;;;;;;;20.63;15.17;;;;;;;0.39;78.63;100966.03;4111108;28;20269;-55
2022/01/13 01:15:41;;;;;;;20.85;16.95;;;;;;;0.26;78.96;100968.00;4111680;28;20273;-56
2022/01/13 01:17:48;;;;;;;19.00;17.27;;;;;;;0.20;79.45;100981.97;4128211;28;20253;-55
2022/01/13 01:19:51;;;;;;;24.23;16.23;;;;;;;0.20;79.34;100976.59;4110765;28;20246;-56
2022/01/13 01:22:17;;;;;;;20.83;17.30;;;;;;;0.24;79.14;100978.06;4110878;28;20870;-56
2022/01/13 01:28:33;;;;;;;20.50;17.73;;;;;;;0.37;78.66;100978.78;4126883;28;20233;-56
2022/01/13 01:30:42;;;;;;;19.57;17.67;;;;;;;0.28;78.91;100974.13;4109469;28;20238;-55
2022/01/13 01:32:44;;;;;;;25.03;18.23;;;;;;;0.34;78.88;100973.63;4111989;28;20224;-55
2022/01/13 01:36:49;;;;;;;28.37;19.67;;;;;;;0.28;79.65;100978.66;4128168;28;20233;-55
2022/01/13 01:38:53;;;;;;;19.83;16.27;;;;;;;0.17;79.59;100965.22;4125113;28;20236;-54
2022/01/13 01:40:54;;;;;;;24.00;15.97;;;;;;;0.34;79.13;100975.47;4091481;28;20310;-55
2022/01/13 01:42:56;;;;;;;28.30;20.20;;;;;;;0.20;79.42;100981.97;4110244;28;20207;-55
2022/01/13 01:44:59;;;;;;;29.87;18.40;;;;;;;0.17;79.65;100971.47;4126607;28;20215;-55
2022/01/13 01:47:02;;;;;;;27.53;19.50;;;;;;;0.19;79.57;100974.88;4125896;28;20660;-54
2022/01/13 01:49:14;;;;;;;27.73;19.23;;;;;;;0.12;79.97;100967.41;4094231;28;20207;-55
2022/01/13 01:51:16;;;;;;;22.97;18.77;;;;;;;0.28;79.57;100968.72;4109258;28;20609;-55
2022/01/13 01:53:18;;;;;;;19.20;17.20;;;;;;;0.23;79.79;100965.59;4110815;28;20202;-55
2022/01/13 01:55:21;;;;;;;19.93;16.17;;;;;;;0.19;80.09;100964.09;4095611;28;20644;-55
2022/01/13 01:57:23;;;;;;;18.30;16.50;;;;;;;0.24;79.90;100961.91;4107138;28;20263;-55
2022/01/13 01:59:29;;;;;;;19.67;17.70;;;;;;;0.28;80.17;100963.34;4122193;28;20210;-55
2022/01/13 02:01:31;;;;;;;19.80;16.17;;;;;;;0.30;80.11;100972.19;4105429;28;20202;-55
2022/01/13 02:03:33;;;;;;;21.60;16.13;;;;;;;0.33;79.90;100966.53;4091217;28;20661;-55
2022/01/13 02:05:35;;;;;;;17.60;15.80;;;;;;;0.31;80.12;100967.63;4103635;28;20206;-55
2022/01/13 02:07:38;;;;;;;17.60;15.87;;;;;;;0.31;79.82;100965.81;4108883;28;20218;-55
2022/01/13 02:09:42;;;;;;;18.40;16.50;;;;;;;0.38;79.93;100964.31;4109914;28;20231;-55
2022/01/13 02:11:49;;;;;;;17.23;15.50;;;;;;;0.34;80.18;100957.47;4096113;28;20215;-55
2022/01/13 02:13:54;;;;;;;18.17;16.37;;;;;;;0.34;80.10;100962.84;4109884;28;20266;-56
2022/01/13 02:16:05;;;;;;;19.27;17.47;;;;;;;0.37;80.17;100951.84;4109631;28;20234;-56
2022/01/13 02:18:07;;;;;;;18.87;16.43;;;;;;;0.39;79.94;100952.56;4110486;28;20206;-55
2022/01/13 02:20:19;;;;;;;18.73;16.83;;;;;;;0.44;79.88;100953.06;4109711;28;20232;-56
2022/01/13 02:22:21;;;;;;;19.05;17.45;;;;;;;0.54;79.72;100955.84;4092877;28;20203;-55
2022/01/13 02:24:23;;;;;;;18.97;16.97;;;;;;;0.48;79.70;100959.03;4112234;28;20214;-55
2022/01/13 02:26:25;;;;;;;17.08;15.40;;;;;;;0.48;79.73;100969.81;4108028;28;20711;-55
2022/01/13 02:28:29;;;;;;;18.23;16.52;;;;;;;0.46;79.62;100972.63;4113081;28;20306;-55
2022/01/13 02:30:30;;;;;;;20.55;18.55;;;;;;;0.48;79.70;100964.44;4126756;28;20261;-55
2022/01/13 02:32:32;;;;;;;17.83;16.17;;;;;;;0.50;79.50;100957.06;4108992;28;20629;-55
2022/01/13 02:34:34;;;;;;;16.75;15.25;;;;;;;0.53;79.35;100962.19;4108086;28;20234;-55
2022/01/13 02:36:37;;;;;;;24.15;17.52;;;;;;;0.56;79.42;100968.16;4110450;28;20210;-56
2022/01/13 02:38:38;;;;;;;22.88;16.63;;;;;;;0.57;79.45;100964.53;4111001;28;20210;-55
2022/01/13 02:40:40;;;;;;;20.08;17.35;;;;;;;0.48;79.99;100970.66;4124990;28;20285;-56
2022/01/13 02:42:42;;;;;;;17.60;15.85;;;;;;;0.50;79.82;100947.16;4110499;28;20223;-55
2022/01/13 02:45:14;;;;;;;21.25;17.60;;;;;;;0.51;79.65;100950.69;4111387;28;20215;-56
2022/01/13 02:47:33;;;;;;;16.65;15.25;;;;;;;0.66;79.43;100942.19;4112473;28;20203;-55
2022/01/13 02:49:41;;;;;;;17.75;16.10;;;;;;;0.55;79.21;100934.16;4112795;28;20234;-56
2022/01/13 02:51:45;;;;;;;18.63;16.83;;;;;;;0.62;79.13;100927.25;4107522;28;20241;-55
2022/01/13 02:53:46;;;;;;;20.83;15.50;;;;;;;0.53;79.37;100919.97;4127786;28;20202;-54
2022/01/13 02:55:49;;;;;;;17.52;15.82;;;;;;;0.49;79.49;100928.44;4113258;28;20298;-57
2022/01/13 02:57:50;;;;;;;16.33;14.70;;;;;;;0.50;79.31;100931.00;4110542;28;20588;-56
2022/01/13 02:59:52;;;;;;;18.70;16.98;;;;;;;0.53;79.65;100929.88;4108781;28;20641;-56
2022/01/13 03:01:54;;;;;;;17.48;15.75;;;;;;;0.62;79.32;100929.94;4126255;28;20273;-56
2022/01/13 03:03:56;;;;;;;21.73;15.27;;;;;;;0.58;79.28;100939.28;4112525;28;20203;-55
2022/01/13 03:05:57;;;;;;;17.85;16.13;;;;;;;0.56;79.63;100930.47;4110376;28;20222;-56
2022/01/13 03:07:59;;;;;;;17.92;16.23;;;;;;;0.53;79.54;100925.34;4110191;28;20245;-55
2022/01/13 03:10:02;;;;;;;19.70;18.02;;;;;;;0.57;79.45;100932.19;4111416;28;20711;-55
2022/01/13 03:12:04;;;;;;;20.88;18.67;;;;;;;0.56;79.35;100940.41;4125681;28;20257;-56
2022/01/13 03:14:10;;;;;;;19.63;15.77;;;;;;;0.52;79.81;100934.41;4094384;28;22216;-56
2022/01/13 03:16:13;;;;;;;18.30;16.08;;;;;;;0.48;79.87;100938.34;4107887;28;20250;-56
2022/01/13 03:18:15;;;;;;;20.30;16.40;;;;;;;0.55;79.87;100938.69;4109241;28;20209;-56
2022/01/13 03:20:18;;;;;;;18.20;16.45;;;;;;;0.48;79.71;100935.63;4106692;28;20341;-55
2022/01/13 03:22:19;;;;;;;18.27;15.95;;;;;;;0.51;79.79;100931.84;4125909;28;20210;-56
2022/01/13 03:24:21;;;;;;;18.08;16.23;;;;;;;0.52;79.61;100930.84;4108536;28;20253;-56
2022/01/13 03:26:24;;;;;;;19.50;15.77;;;;;;;0.48;79.63;100938.34;4094309;28;20207;-55
2022/01/13 03:28:30;;;;;;;18.13;16.30;;;;;;;0.53;79.21;100932.56;4125015;28;20618;-56
2022/01/13 03:30:32;;;;;;;18.02;16.42;;;;;;;0.56;79.26;100935.84;4107651;28;22272;-56
2022/01/13 03:32:35;;;;;;;17.13;15.53;;;;;;;0.54;79.54;100945.06;4108524;28;20234;-55
2022/01/13 03:34:37;;;;;;;17.67;16.07;;;;;;;0.49;79.92;100934.66;4126037;28;20202;-55
2022/01/13 03:36:43;;;;;;;22.63;17.60;;;;;;;0.60;79.88;100948.09;4109814;28;20277;-55
2022/01/13 03:38:45;;;;;;;21.38;17.30;;;;;;;0.55;79.85;100942.22;4110966;28;20237;-55
2022/01/13 03:40:47;;;;;;;17.40;15.90;;;;;;;0.51;79.83;100950.69;4111007;28;20281;-56
2022/01/13 03:42:52;;;;;;;17.98;16.42;;;;;;;0.50;79.57;100940.91;4095090;28;20215;-54
2022/01/13 03:44:54;;;;;;;21.73;15.60;;;;;;;0.60;80.07;100948.09;4124405;28;20209;-57
2022/01/13 03:46:59;;;;;;;19.00;17.00;;;;;;;0.54;79.73;100948.59;4110738;28;20242;-56
2022/01/13 03:49:01;;;;;;;18.50;16.80;;;;;;;0.56;79.61;100951.19;4110896;28;20206;-56
2022/01/13 03:51:03;;;;;;;19.80;17.35;;;;;;;0.56;79.43;100957.41;4122124;28;20237;-55
2022/01/13 03:53:29;;;;;;;19.40;17.70;;;;;;;0.63;79.70;100957.75;4106943;28;20250;-56
2022/01/13 03:55:36;;;;;;;20.10;18.08;;;;;;;0.57;79.84;100955.56;4109970;28;20954;-56
2022/01/13 03:57:56;;;;;;;18.95;17.25;;;;;;;0.59;79.66;100962.53;4109852;28;20213;-55
2022/01/13 04:00:23;;;;;;;19.52;16.30;;;;;;;0.61;79.69;100963.28;4125187;28;20230;-55
2022/01/13 04:02:24;;;;;;;21.80;17.23;;;;;;;0.58;79.43;100959.97;4106312;28;20235;-55
2022/01/13 04:04:33;;;;;;;22.13;16.83;;;;;;;0.55;79.60;100955.69;4123264;28;20269;-56
2022/01/13 04:06:44;;;;;;;20.13;18.10;;;;;;;0.58;79.56;100950.06;4110409;28;20289;-56
2022/01/13 04:08:48;;;;;;;19.43;17.70;;;;;;;0.67;79.36;100951.16;4109290;28;20691;-54
2022/01/13 04:10:52;;;;;;;21.10;18.98;;;;;;;0.63;79.35;100946.97;4124112;28;20817;-55
2022/01/13 04:12:54;;;;;;;17.77;16.17;;;;;;;0.62;79.38;100946.13;4123634;28;20210;-55
2022/01/13 04:14:59;;;;;;;20.90;19.10;;;;;;;0.65;79.23;100943.19;4107943;28;20202;-55
2022/01/13 04:17:01;;;;;;;19.98;18.13;;;;;;;0.64;79.31;100954.94;4109982;28;20207;-56
2022/01/13 04:19:07;;;;;;;20.58;18.77;;;;;;;0.67;79.30;100956.53;4122713;28;20233;-55
2022/01/13 04:21:09;;;;;;;18.95;17.25;;;;;;;0.68;79.24;100948.31;4125799;28;20253;-55
2022/01/13 04:23:12;;;;;;;19.58;17.60;;;;;;;0.79;78.56;100953.66;4109887;28;20210;-56
2022/01/13 04:25:15;;;;;;;18.95;17.02;;;;;;;0.75;78.50;100948.66;4093802;28;20220;-55
2022/01/13 04:27:23;;;;;;;17.70;16.13;;;;;;;0.78;78.86;100945.69;4108573;28;20227;-55
2022/01/13 04:29:34;;;;;;;19.10;17.15;;;;;;;0.75;78.95;100946.81;4106757;28;20895;-56
2022/01/13 04:31:36;;;;;;;19.83;17.88;;;;;;;0.73;78.57;100938.00;4093751;28;20547;-55
2022/01/13 04:33:38;;;;;;;18.85;17.05;;;;;;;0.71;78.60;100939.97;4089407;28;20245;-55
2022/01/13 04:35:41;;;;;;;17.77;15.52;;;;;;;0.76;78.58;100940.47;4123796;28;21036;-56
2022/01/13 04:37:42;;;;;;;19.05;17.20;;;;;;;0.72;78.85;100941.69;4109136;28;20210;-55
2022/01/13 04:39:44;;;;;;;17.77;16.00;;;;;;;0.65;79.28;100945.00;4126177;28;20238;-55
2022/01/13 04:41:48;;;;;;;23.10;18.63;;;;;;;0.56;79.20;100952.00;4120994;28;20671;-56
2022/01/13 04:43:53;;;;;;;21.17;19.10;;;;;;;0.57;79.50;100939.41;4123434;28;20296;-56
2022/01/13 04:45:54;;;;;;;17.92;16.38;;;;;;;0.61;79.35;100943.56;4124265;28;20242;-56
2022/01/13 04:47:57;;;;;;;19.55;17.52;;;;;;;0.50;79.61;100941.78;4123565;28;20242;-55
2022/01/13 04:49:58;;;;;;;18.73;16.93;;;;;;;0.55;79.48;100938.69;4105146;28;20289;-56
2022/01/13 04:52:00;;;;;;;19.55;17.58;;;;;;;0.59;78.91;100940.13;4107750;28;20216;-56
2022/01/13 04:54:02;;;;;;;20.13;17.98;;;;;;;0.59;79.34;100932.06;4109478;28;20210;-56
2022/01/13 04:56:10;;;;;;;18.88;15.57;;;;;;;0.64;79.40;100928.00;4125935;28;20234;-55
2022/01/13 04:58:12;;;;;;;20.33;18.53;;;;;;;0.65;79.02;100932.41;4105646;28;20647;-55
2022/01/13 05:00:14;;;;;;;19.87;17.83;;;;;;;0.62;79.45;100939.91;4123500;28;20257;-56
2022/01/13 05:02:16;;;;;;;19.42;17.80;;;;;;;0.62;79.49;100929.13;4108215;28;20225;-55
2022/01/13 05:04:18;;;;;;;18.67;16.85;;;;;;;0.62;78.95;100923.72;4125422;28;20218;-56
2022/01/13 05:06:20;;;;;;;19.20;17.20;;;;;;;0.63;79.19;100926.31;4106578;28;20210;-56
2022/01/13 05:08:22;;;;;;;18.37;14.73;;;;;;;0.59;78.98;100922.16;4123714;28;20217;-55
2022/01/13 05:10:23;;;;;;;17.27;15.75;;;;;;;0.60;79.02;100918.47;4108904;28;20314;-56
2022/01/13 05:12:32;;;;;;;16.48;14.88;;;;;;;0.70;78.83;100918.53;4107946;28;20728;-55
2022/01/13 05:14:33;;;;;;;22.08;17.17;;;;;;;0.64;78.99;100922.63;4108845;28;20217;-56
2022/01/13 05:16:51;;;;;;;18.90;16.58;;;;;;;0.70;79.26;100922.13;4105990;28;20659;-56
2022/01/13 05:18:58;;;;;;;17.45;15.80;;;;;;;0.62;79.16;100924.56;4110689;28;20218;-56
2022/01/13 05:21:06;;;;;;;18.83;16.80;;;;;;;0.63;79.20;100928.13;4108571;28;20255;-56
2022/01/13 05:23:09;;;;;;;19.70;17.67;;;;;;;0.63;79.04;100917.34;4123084;28;20260;-56
2022/01/13 05:25:11;;;;;;;18.48;16.42;;;;;;;0.70;78.80;100916.72;4106002;28;20210;-56
2022/01/13 05:27:13;;;;;;;21.20;18.88;;;;;;;0.65;78.99;100921.63;4110335;28;20748;-55
2022/01/13 05:29:19;;;;;;;20.40;18.17;;;;;;;0.66;79.24;100920.66;4110712;28;20214;-54
2022/01/13 05:31:21;;;;;;;24.30;17.90;;;;;;;0.64;78.94;100917.22;4097706;28;20219;-55
2022/01/13 05:33:26;;;;;;;16.13;14.63;;;;;;;0.59;79.39;100927.53;4115055;28;20612;-54
2022/01/13 05:35:28;;;;;;;19.25;17.38;;;;;;;0.52;79.08;100934.41;4110804;28;20238;-55
2022/01/13 05:37:30;;;;;;;19.13;16.77;;;;;;;0.63;79.31;100926.31;4109043;28;20211;-55
2022/01/13 05:39:32;;;;;;;20.38;18.27;;;;;;;0.57;79.10;100932.19;4108986;28;20258;-55
2022/01/13 05:41:34;;;;;;;18.95;17.10;;;;;;;0.55;79.31;100933.31;4125131;28;20214;-55
2022/01/13 05:43:36;;;;;;;24.42;16.20;;;;;;;0.54;79.22;100931.59;4126622;28;20322;-54
2022/01/13 05:45:38;;;;;;;19.77;16.92;;;;;;;0.42;79.60;100940.69;4111236;28;20610;-56
2022/01/13 05:47:41;;;;;;;21.23;15.77;;;;;;;0.45;79.73;100952.06;4127959;28;20210;-56
2022/01/13 05:49:43;;;;;;;17.52;15.43;;;;;;;0.45;79.60;100941.28;4128923;28;20774;-56
2022/01/13 05:51:46;;;;;;;20.63;16.23;;;;;;;0.48;79.67;100942.88;4097447;28;20302;-55
2022/01/13 05:53:48;;;;;;;18.88;16.25;;;;;;;0.49;79.62;100936.50;4127311;28;20933;-56
2022/01/13 05:55:50;;;;;;;15.50;14.02;;;;;;;0.54;79.18;100937.81;4109002;28;20701;-56
2022/01/13 05:57:52;;;;;;;18.00;16.02;;;;;;;0.54;79.11;100937.81;4123283;28;20702;-56
2022/01/13 05:59:53;;;;;;;17.17;15.53;;;;;;;0.56;79.45;100935.00;4107642;28;20226;-56
2022/01/13 06:01:56;;;;;;;19.17;17.25;;;;;;;0.56;79.15;100933.16;4110044;28;20631;-56
2022/01/13 06:03:58;;;;;;;18.67;16.77;;;;;;;0.55;79.06;100939.53;4109972;28;20206;-56
2022/01/13 06:05:59;;;;;;;22.10;19.40;;;;;;;0.53;78.97;100938.81;4109573;28;20242;-56
2022/01/13 06:08:01;;;;;;;21.55;16.70;;;;;;;0.54;79.21;100927.06;4109881;28;20211;-56
2022/01/13 06:10:05;;;;;;;24.90;19.90;;;;;;;0.61;79.22;100936.34;4111702;28;20745;-55
2022/01/13 06:12:07;;;;;;;29.33;18.67;;;;;;;0.53;79.09;100946.91;4126557;28;20216;-55
2022/01/13 06:14:09;;;;;;;26.27;17.30;;;;;;;0.53;79.56;100943.31;4122783;28;20230;-55
2022/01/13 06:16:11;;;;;;;29.60;20.73;;;;;;;0.44;79.61;100947.66;4108483;28;20218;-55
2022/01/13 06:18:14;;;;;;;22.70;17.60;;;;;;;0.33;80.08;100945.00;4114529;28;20211;-56
2022/01/13 06:20:17;;;;;;;23.07;19.23;;;;;;;0.30;80.18;100945.25;4110512;28;20241;-55
2022/01/13 06:22:19;;;;;;;23.40;18.13;;;;;;;0.30;80.15;100945.25;4104033;28;20239;-54
2022/01/13 06:24:21;;;;;;;26.53;18.07;;;;;;;0.34;80.07;100946.69;4109558;28;20253;-56
2022/01/13 06:26:22;;;;;;;23.37;19.30;;;;;;;0.33;80.07;100950.38;4124573;28;20431;-55
2022/01/13 06:28:24;;;;;;;22.20;19.27;;;;;;;0.34;80.26;100946.69;4110108;28;20842;-56
2022/01/13 06:30:26;;;;;;;21.07;18.73;;;;;;;0.32;80.14;100951.38;4126906;28;20218;-55
2022/01/13 06:32:28;;;;;;;22.13;19.83;;;;;;;0.35;80.22;100953.78;4106245;28;20654;-56
2022/01/13 06:34:29;;;;;;;21.13;18.85;;;;;;;0.40;80.12;100951.59;4097017;28;20230;-55
2022/01/13 06:36:31;;;;;;;22.27;20.02;;;;;;;0.43;80.11;100953.16;4108978;28;20949;-55
2022/01/13 06:38:33;;;;;;;25.17;19.63;;;;;;;0.44;79.83;100962.94;4124987;28;20217;-55
2022/01/13 06:40:38;;;;;;;26.98;20.58;;;;;;;0.47;79.75;100954.63;4106888;28;20234;-55
2022/01/13 06:42:39;;;;;;;36.33;22.85;;;;;;;0.36;80.04;100963.56;4111733;28;20253;-55
2022/01/13 06:44:41;;;;;;;43.07;21.63;;;;;;;0.24;80.42;100956.53;4099607;28;20215;-55
2022/01/13 06:46:43;;;;;;;39.63;22.42;;;;;;;0.22;80.85;100966.53;4109531;28;20665;-56
2022/01/13 06:48:45;;;;;;;40.67;22.70;;;;;;;0.33;80.34;100961.16;4107906;28;20230;-54
2022/01/13 06:50:47;;;;;;;29.65;20.30;;;;;;;0.31;80.58;100968.50;4124810;28;20253;-55
2022/01/13 06:52:49;;;;;;;36.40;23.27;;;;;;;0.36;80.37;100982.41;4126845;28;20214;-54
2022/01/13 06:54:52;;;;;;;40.67;22.47;;;;;;;0.35;80.32;100975.31;4109152;28;20266;-55
2022/01/13 06:56:53;;;;;;;42.67;23.95;;;;;;;0.33;80.08;100980.00;4123077;28;20229;-56
2022/01/13 06:58:55;;;;;;;38.43;23.63;;;;;;;0.30;80.43;100976.69;4110161;28;20215;-56
2022/01/13 07:00:57;;;;;;;38.40;22.23;;;;;;;0.25;80.62;100979.78;4113290;28;20246;-56
2022/01/13 07:03:02;;;;;;;37.63;22.27;;;;;;;0.30;80.36;100988.34;4124758;28;20260;-56
2022/01/13 07:05:05;;;;;;;35.17;20.43;;;;;;;0.32;80.06;100986.38;4124933;28;20245;-55
2022/01/13 07:07:07;;;;;;;27.73;20.63;;;;;;;0.27;80.32;100983.19;4111480;28;20207;-56
2022/01/13 07:09:13;;;;;;;34.30;21.70;;;;;;;0.29;80.11;100991.97;4110571;28;20356;-56
2022/01/13 07:11:15;;;;;;;31.58;22.45;;;;;;;0.33;80.29;100993.47;4112421;28;20776;-55
2022/01/13 07:13:17;;;;;;;37.92;22.58;;;;;;;0.34;80.30;100997.03;4123677;28;20268;-55
2022/01/13 07:15:18;;;;;;;30.83;21.53;;;;;;;0.38;80.22;100985.00;4096046;28;20208;-55
2022/01/13 07:17:20;;;;;;;29.00;23.05;;;;;;;0.39;80.39;100992.97;4127089;28;20225;-56
2022/01/13 07:19:22;;;;;;;33.57;23.03;;;;;;;0.36;80.47;100987.81;4109083;28;20211;-55
2022/01/13 07:21:26;;;;;;;37.78;23.85;;;;;;;0.46;79.98;100988.78;4128817;28;20534;-55
2022/01/13 07:23:28;;;;;;;32.43;24.03;;;;;;;0.42;80.04;100986.47;4127231;28;20213;-55
2022/01/13 07:25:30;;;;;;;57.40;22.53;;;;;;;0.50;79.80;100979.47;4110807;28;20623;-55
2022/01/13 07:27:32;;;;;;;48.42;23.88;;;;;;;0.27;80.12;100977.78;4111916;28;20203;-56
2022/01/13 07:29:33;;;;;;;40.57;22.53;;;;;;;0.30;79.90;100985.66;4125504;28;20697;-55
2022/01/13 07:31:38;;;;;;;35.40;23.60;;;;;;;0.32;80.15;100985.50;4127671;28;20289;-55
2022/01/13 07:33:41;;;;;;;51.40;26.57;;;;;;;0.29;79.79;100980.38;4106477;28;20211;-54
2022/01/13 07:35:43;;;;;;;59.23;26.73;;;;;;;0.23;80.13;100979.03;4125226;28;20238;-56
2022/01/13 07:37:44;;;;;;;63.70;26.63;;;;;;;0.24;80.23;100991.53;4109211;28;20234;-56
2022/01/13 07:39:46;;;;;;;46.67;25.90;;;;;;;0.35;80.00;100991.47;4125967;28;20289;-55
2022/01/13 07:41:48;;;;;;;48.40;28.13;;;;;;;0.30;79.80;100999.09;4125397;28;20651;-55
2022/01/13 07:43:54;;;;;;;44.47;25.57;;;;;;;0.31;79.99;100991.88;4108448;28;20661;-55
2022/01/13 07:45:56;;;;;;;45.22;25.98;;;;;;;0.34;80.09;100995.16;4108861;28;20298;-55
2022/01/13 07:47:58;;;;;;;37.27;24.47;;;;;;;0.38;80.23;100993.94;4125517;28;20290;-55
2022/01/13 07:50:09;;;;;;;44.90;26.57;;;;;;;0.40;80.07;100983.91;4127019;28;20625;-55
2022/01/13 07:52:11;;;;;;;37.30;22.60;;;;;;;0.43;79.81;100988.19;4125423;28;20551;-56
2022/01/13 07:54:12;;;;;;;40.20;25.63;;;;;;;0.31;79.99;100995.44;4125496;28;20210;-55
2022/01/13 07:56:14;;;;;;;48.60;26.83;;;;;;;0.19;80.59;100999.09;4111332;28;20214;-55
2022/01/13 07:58:16;;;;;;;49.60;26.13;;;;;;;0.27;80.87;100988.56;4107992;28;20225;-54
2022/01/13 08:00:18;;;;;;;83.13;29.13;;;;;;;0.29;80.19;100991.97;4125531;28;20222;-55
2022/01/13 08:02:19;;;;;;;84.03;25.97;;;;;;;0.12;80.48;101005.97;4108740;28;20215;-55
2022/01/13 08:04:21;;;;;;;58.73;27.50;;;;;;;0.15;80.74;101005.69;4125487;28;20249;-55
2022/01/13 08:06:23;;;;;;;82.67;25.77;;;;;;;0.06;80.95;101005.59;4108173;28;20242;-55
2022/01/13 08:08:25;;;;;;;49.77;26.63;;;;;;;0.16;81.08;101001.19;4094636;28;20674;-56
2022/01/13 08:10:27;;;;;;;71.70;24.90;;;;;;;0.19;80.67;101001.78;4110279;28;20233;-55
2022/01/13 08:12:28;;;;;;;45.03;25.03;;;;;;;0.23;80.74;100997.88;4107723;28;20211;-56
2022/01/13 08:14:30;;;;;;;43.20;23.57;;;;;;;0.23;80.53;101003.28;4125192;28;20210;-55
2022/01/13 08:16:35;;;;;;;58.90;26.57;;;;;;;0.13;80.61;101001.41;4106251;28;20373;-56
2022/01/13 08:21:00;;;;;;;47.93;24.50;;;;;;;0.15;80.45;100994.94;4124285;28;20350;-56
2022/01/13 08:23:02;;;;;;;49.27;24.63;;;;;;;0.15;80.58;101000.31;4109839;28;20225;-55
2022/01/13 08:25:04;;;;;;;48.50;22.20;;;;;;;0.17;80.44;100993.00;4107727;28;20206;-55
2022/01/13 08:27:06;;;;;;;35.93;21.50;;;;;;;0.10;80.77;100991.78;4125957;28;20210;-55
2022/01/13 08:29:07;;;;;;;40.70;22.23;;;;;;;0.12;80.23;100984.44;4107592;28;20242;-55
2022/01/13 08:31:09;;;;;;;43.53;24.77;;;;;;;0.11;80.57;100985.41;4107901;28;20285;-56
2022/01/13 08:33:14;;;;;;;37.97;24.07;;;;;;;0.14;80.62;100977.09;4093350;28;20310;-55
2022/01/13 08:35:16;;;;;;;61.03;24.37;;;;;;;0.15;80.59;100976.09;4123666;28;20220;-55
2022/01/13 08:37:18;;;;;;;63.77;24.80;;;;;;;0.20;80.50;100979.28;4123130;28;20226;-55
2022/01/13 08:39:20;;;;;;;53.57;23.30;;;;;;;0.00;80.83;100985.41;4106659;28;20234;-55
2022/01/13 08:41:22;;;;;;;43.73;22.77;;;;;;;0.11;80.81;100980.03;4108225;28;21594;-55
2022/01/13 08:43:25;;;;;;;31.40;19.50;;;;;;;0.19;80.86;100985.66;4126991;28;20202;-55
2022/01/13 08:45:27;;;;;;;36.43;22.50;;;;;;;0.25;80.69;100974.38;4108915;28;20230;-55
2022/01/13 08:47:29;;;;;;;37.23;25.60;;;;;;;0.32;80.37;100970.22;4107022;28;20265;-56
2022/01/13 08:49:31;;;;;;;43.85;25.00;;;;;;;0.38;80.91;100975.09;4103481;28;20249;-56
2022/01/13 08:51:32;;;;;;;35.00;25.02;;;;;;;0.42;80.72;100973.84;4108042;28;21188;-56
2022/01/13 08:53:34;;;;;;;49.00;24.35;;;;;;;0.32;80.15;100974.72;4109556;28;20210;-54
2022/01/13 08:55:39;;;;;;;50.30;25.17;;;;;;;0.25;80.14;100978.91;4091838;28;20310;-56
2022/01/13 08:57:40;;;;;;;57.30;23.57;;;;;;;0.23;80.05;100976.34;4108879;28;20250;-55
2022/01/13 08:59:43;;;;;;;44.13;22.77;;;;;;;0.01;80.79;100987.13;4108377;28;20743;-55
2022/01/13 09:01:45;;;;;;;45.33;22.10;;;;;;;0.04;80.93;100981.50;4109314;28;20266;-55
2022/01/13 09:03:47;;;;;;;36.20;22.10;;;;;;;0.12;80.78;100989.81;4110839;28;20314;-55
2022/01/13 09:05:48;;;;;;;39.63;22.50;;;;;;;0.29;80.31;100985.75;4109145;28;20214;-55
2022/01/13 09:07:50;;;;;;;40.27;20.60;;;;;;;0.32;80.68;100996.25;4128093;28;20261;-55
2022/01/13 09:09:52;;;;;;;47.07;24.77;;;;;;;0.30;80.60;100995.53;4104383;28;20230;-56
2022/01/13 09:11:54;;;;;;;52.27;21.73;;;;;;;0.23;81.00;100995.19;4108617;28;20624;-55
2022/01/13 09:13:57;;;;;;;39.63;22.87;;;;;;;0.31;80.68;100995.44;4110024;28;20211;-55
2022/01/13 09:16:00;;;;;;;39.07;22.70;;;;;;;0.41;80.84;100998.22;4123118;28;20213;-55
2022/01/13 09:18:09;;;;;;;26.23;20.73;;;;;;;0.46;80.79;100999.56;4110500;28;20231;-55
2022/01/13 09:20:13;;;;;;;45.93;21.73;;;;;;;0.53;80.45;100997.19;4113878;28;20229;-56
2022/01/13 09:22:15;;;;;;;47.40;22.23;;;;;;;0.49;80.33;100999.28;4111056;28;20206;-55
2022/01/13 09:24:18;;;;;;;39.35;22.25;;;;;;;0.55;80.36;101000.66;4111568;28;20693;-56
2022/01/13 09:26:19;;;;;;;43.17;22.20;;;;;;;0.48;80.39;101002.97;4110142;28;20245;-55
2022/01/13 09:28:21;;;;;;;40.70;22.63;;;;;;;0.40;80.02;101005.44;4125730;28;20202;-55
2022/01/13 09:30:23;;;;;;;36.80;22.27;;;;;;;0.36;80.84;100993.19;4126357;28;20298;-55
2022/01/13 09:32:26;;;;;;;43.33;24.67;;;;;;;0.38;80.34;101007.41;4125280;28;20249;-55
2022/01/13 09:34:27;;;;;;;39.22;19.85;;;;;;;0.49;80.23;101010.06;4124005;28;20264;-55
2022/01/13 09:36:30;;;;;;;37.67;21.53;;;;;;;0.32;80.42;101018.66;4110173;28;20269;-55
2022/01/13 09:38:33;;;;;;;33.97;21.42;;;;;;;0.42;80.21;101014.25;4112927;28;20618;-54
2022/01/13 09:40:35;;;;;;;30.27;18.92;;;;;;;0.49;80.32;101012.75;4127478;28;20730;-56